Time;durP1;ratioP1;P1;durP2;ratioP2;P2;SDS_P1;SDS_P2;PMS_P1;PMS_P2;Temp;Humidity;BMP_temperature;BMP_pressure;BME280_temperature;BME280_humidity;BME280_pressure;Samples;Min_cycle;Max_cycle;Signal;HPM_P1;HPM_P2
2023/01/21 00:00:24;;;;;;;198.70;93.15;;;;;;;;;;1033637;28;20082;-73
2023/01/21 00:00:55;;;;;;;183.68;87.35;;;;;;;;;;1032951;28;20043;-73
2023/01/21 00:01:25;;;;;;;176.35;84.78;;;;;;;;;;1032768;28;20120;-73
2023/01/21 00:01:56;;;;;;;181.07;86.57;;;;;;;;;;1033554;28;20025;-72
2023/01/21 00:02:26;;;;;;;180.05;89.38;;;;;;;;;;1032864;28;20473;-72
2023/01/21 00:02:57;;;;;;;181.85;81.78;;;;;;;;;;1033254;28;20100;-73
2023/01/21 00:03:27;;;;;;;179.02;87.53;;;;;;;;;;1033652;28;20036;-73
2023/01/21 00:03:58;;;;;;;185.68;91.38;;;;;;;;;;1034682;28;20018;-73
2023/01/21 00:04:29;;;;;;;187.07;84.22;;;;;;;;;;1034870;28;20069;-73
2023/01/21 00:04:59;;;;;;;202.82;89.68;;;;;;;;;;1035332;28;20112;-73
2023/01/21 00:05:30;;;;;;;213.13;91.93;;;;;;;;;;1035186;28;20028;-73
2023/01/21 00:06:01;;;;;;;198.43;86.38;;;;;;;;;;1033590;28;20430;-72
2023/01/21 00:06:31;;;;;;;184.38;88.38;;;;;;;;;;1033047;28;20029;-73
2023/01/21 00:07:02;;;;;;;186.23;85.72;;;;;;;;;;1030745;28;20118;-73
2023/01/21 00:07:33;;;;;;;164.18;88.05;;;;;;;;;;1033973;28;20017;-73
2023/01/21 00:08:03;;;;;;;188.85;87.07;;;;;;;;;;1034631;28;20052;-73
2023/01/21 00:08:34;;;;;;;203.18;94.35;;;;;;;;;;1031078;28;20022;-73
2023/01/21 00:09:05;;;;;;;197.18;94.22;;;;;;;;;;1024199;28;20137;-73
2023/01/21 00:09:35;;;;;;;202.43;87.47;;;;;;;;;;1033111;28;20033;-73
2023/01/21 00:10:06;;;;;;;214.45;97.60;;;;;;;;;;1033219;28;20024;-73
2023/01/21 00:10:36;;;;;;;202.50;95.25;;;;;;;;;;1032820;28;20027;-73
2023/01/21 00:11:08;;;;;;;229.55;97.85;;;;;;;;;;1033581;28;20029;-73
2023/01/21 00:11:38;;;;;;;235.07;94.47;;;;;;;;;;1032960;28;20029;-73
2023/01/21 00:12:09;;;;;;;221.90;100.38;;;;;;;;;;1030673;28;20051;-73
2023/01/21 00:12:39;;;;;;;233.13;101.50;;;;;;;;;;1033273;28;20029;-73
2023/01/21 00:13:10;;;;;;;203.70;96.53;;;;;;;;;;1033646;28;20033;-72
2023/01/21 00:13:42;;;;;;;203.18;89.68;;;;;;;;;;1031737;28;20498;-73
2023/01/21 00:14:12;;;;;;;212.20;99.10;;;;;;;;;;1033124;28;20027;-73
2023/01/21 00:14:43;;;;;;;215.93;96.45;;;;;;;;;;1032036;28;20023;-73
2023/01/21 00:15:13;;;;;;;226.68;99.97;;;;;;;;;;1032849;28;20232;-73
2023/01/21 00:15:44;;;;;;;215.18;100.65;;;;;;;;;;1032617;28;20020;-73
2023/01/21 00:16:14;;;;;;;225.77;93.88;;;;;;;;;;1032095;28;20387;-73
2023/01/21 00:16:45;;;;;;;228.77;101.43;;;;;;;;;;1026839;28;20092;-73
2023/01/21 00:17:15;;;;;;;231.85;104.93;;;;;;;;;;1039220;28;20485;-73
2023/01/21 00:17:46;;;;;;;229.13;102.13;;;;;;;;;;1033070;28;20093;-73
2023/01/21 00:18:16;;;;;;;223.07;102.38;;;;;;;;;;1033201;28;20035;-73
2023/01/21 00:18:47;;;;;;;230.82;106.95;;;;;;;;;;1033891;28;20034;-73
2023/01/21 00:19:17;;;;;;;246.88;110.60;;;;;;;;;;1033106;28;20021;-73
2023/01/21 00:19:48;;;;;;;234.25;105.80;;;;;;;;;;1030875;28;20094;-73
2023/01/21 00:20:19;;;;;;;261.40;110.97;;;;;;;;;;1031032;28;20053;-73
2023/01/21 00:20:49;;;;;;;229.18;108.15;;;;;;;;;;1025276;28;20027;-73
2023/01/21 00:21:20;;;;;;;227.70;101.50;;;;;;;;;;1032701;28;20135;-73
2023/01/21 00:21:50;;;;;;;210.85;100.25;;;;;;;;;;1034050;28;20033;-73
2023/01/21 00:22:21;;;;;;;238.48;105.78;;;;;;;;;;1029936;28;20026;-72
2023/01/21 00:22:54;;;;;;;222.63;102.20;;;;;;;;;;1028500;28;20051;-73
2023/01/21 00:23:24;;;;;;;230.30;101.40;;;;;;;;;;1032787;28;20045;-73
2023/01/21 00:23:55;;;;;;;230.00;106.10;;;;;;;;;;1033562;28;20086;-73
2023/01/21 00:24:25;;;;;;;230.63;104.22;;;;;;;;;;1030931;28;20032;-73
2023/01/21 00:24:56;;;;;;;230.82;106.88;;;;;;;;;;1036057;28;20017;-73
2023/01/21 00:25:27;;;;;;;234.20;107.07;;;;;;;;;;1034182;28;20021;-73
2023/01/21 00:26:01;;;;;;;233.52;105.25;;;;;;;;;;1035841;28;20377;-73
2023/01/21 00:26:31;;;;;;;233.63;104.97;;;;;;;;;;1031239;28;20032;-73
2023/01/21 00:27:02;;;;;;;234.10;102.55;;;;;;;;;;1032904;28;20056;-73
2023/01/21 00:27:33;;;;;;;218.65;103.75;;;;;;;;;;1033377;28;20033;-73
2023/01/21 00:28:03;;;;;;;228.80;103.10;;;;;;;;;;1036280;28;20025;-73
2023/01/21 00:28:34;;;;;;;232.27;104.78;;;;;;;;;;1029529;28;20020;-73
2023/01/21 00:29:05;;;;;;;248.45;111.53;;;;;;;;;;1032006;28;20025;-73
2023/01/21 00:29:35;;;;;;;226.55;105.93;;;;;;;;;;1031833;28;20021;-73
2023/01/21 00:30:06;;;;;;;232.80;105.22;;;;;;;;;;1033701;28;20025;-73
2023/01/21 00:30:38;;;;;;;234.15;112.35;;;;;;;;;;1033027;28;20023;-73
2023/01/21 00:31:09;;;;;;;213.57;98.40;;;;;;;;;;1033202;28;20531;-72
2023/01/21 00:31:40;;;;;;;230.82;103.93;;;;;;;;;;1034204;28;20019;-72
2023/01/21 00:32:10;;;;;;;245.27;108.15;;;;;;;;;;1032742;28;20029;-73
2023/01/21 00:32:41;;;;;;;228.52;103.50;;;;;;;;;;1033616;28;20032;-73
2023/01/21 00:33:11;;;;;;;215.10;100.80;;;;;;;;;;1032699;28;20100;-73
2023/01/21 00:33:42;;;;;;;214.27;101.95;;;;;;;;;;1032826;28;20531;-73
2023/01/21 00:34:12;;;;;;;205.65;102.97;;;;;;;;;;1033748;28;20078;-73
2023/01/21 00:34:43;;;;;;;247.05;107.45;;;;;;;;;;1033040;28;20035;-72
2023/01/21 00:35:13;;;;;;;223.70;103.05;;;;;;;;;;1032464;28;20030;-72
2023/01/21 00:35:44;;;;;;;228.70;103.57;;;;;;;;;;1033061;28;20122;-72
2023/01/21 00:36:17;;;;;;;223.75;104.60;;;;;;;;;;1033886;28;20019;-73
2023/01/21 00:36:48;;;;;;;237.05;106.05;;;;;;;;;;1033728;28;20032;-73
2023/01/21 00:37:18;;;;;;;228.50;101.15;;;;;;;;;;1033560;28;20408;-73
2023/01/21 00:37:52;;;;;;;227.52;102.75;;;;;;;;;;1033114;28;20122;-73
2023/01/21 00:38:22;;;;;;;235.27;111.03;;;;;;;;;;1032953;28;20025;-73
2023/01/21 00:38:53;;;;;;;237.30;107.90;;;;;;;;;;1033210;28;20050;-73
2023/01/21 00:39:23;;;;;;;234.02;107.90;;;;;;;;;;1032959;28;20080;-73
2023/01/21 00:39:54;;;;;;;234.55;107.88;;;;;;;;;;1032966;28;20021;-73
2023/01/21 00:40:24;;;;;;;235.98;105.38;;;;;;;;;;1033081;28;20074;-73
2023/01/21 00:41:05;;;;;;;220.95;106.93;;;;;;;;;;1033852;28;20033;-73
2023/01/21 00:41:36;;;;;;;225.25;101.90;;;;;;;;;;1032843;28;20116;-73
2023/01/21 00:42:07;;;;;;;233.68;102.32;;;;;;;;;;1032529;28;20435;-73
2023/01/21 00:42:37;;;;;;;221.10;102.03;;;;;;;;;;1027681;28;20075;-73
2023/01/21 00:43:08;;;;;;;228.23;105.55;;;;;;;;;;1032720;28;20023;-73
2023/01/21 00:43:39;;;;;;;203.27;98.28;;;;;;;;;;1036118;28;20031;-73
2023/01/21 00:44:09;;;;;;;244.20;108.72;;;;;;;;;;1029880;28;20055;-73
2023/01/21 00:44:40;;;;;;;210.55;101.97;;;;;;;;;;1032203;28;20039;-73
2023/01/21 00:45:10;;;;;;;225.65;103.45;;;;;;;;;;1032455;28;20020;-73
2023/01/21 00:45:41;;;;;;;216.38;103.97;;;;;;;;;;1033239;28;20034;-73
2023/01/21 00:46:12;;;;;;;233.63;104.95;;;;;;;;;;1030433;28;20027;-73
2023/01/21 00:46:42;;;;;;;222.02;104.68;;;;;;;;;;1030092;28;20020;-73
2023/01/21 00:47:13;;;;;;;213.70;100.70;;;;;;;;;;1035261;28;20058;-73
2023/01/21 00:47:43;;;;;;;226.93;97.90;;;;;;;;;;1028430;28;20026;-73
2023/01/21 00:48:14;;;;;;;222.60;103.25;;;;;;;;;;1031381;28;20469;-73
2023/01/21 00:48:44;;;;;;;245.90;109.03;;;;;;;;;;1032873;28;20121;-73
2023/01/21 00:49:15;;;;;;;223.95;100.72;;;;;;;;;;1037305;28;20167;-73
2023/01/21 00:49:45;;;;;;;225.63;101.32;;;;;;;;;;1034228;28;20027;-73
2023/01/21 00:50:16;;;;;;;227.07;103.47;;;;;;;;;;1032721;28;20035;-73
2023/01/21 00:50:46;;;;;;;256.98;111.18;;;;;;;;;;1032839;28;20420;-73
2023/01/21 00:51:17;;;;;;;248.00;117.40;;;;;;;;;;1030493;28;20021;-73
2023/01/21 00:51:47;;;;;;;245.77;114.40;;;;;;;;;;1033092;28;20034;-73
2023/01/21 00:52:18;;;;;;;275.55;123.07;;;;;;;;;;1032717;28;20021;-73
2023/01/21 00:52:48;;;;;;;280.38;124.47;;;;;;;;;;1032856;28;20116;-72
2023/01/21 00:53:19;;;;;;;279.98;116.75;;;;;;;;;;1033299;28;20019;-73
2023/01/21 00:53:49;;;;;;;269.38;113.18;;;;;;;;;;1033071;28;20402;-73
2023/01/21 00:54:20;;;;;;;253.82;115.70;;;;;;;;;;1033573;28;20062;-72
2023/01/21 00:54:50;;;;;;;260.55;114.88;;;;;;;;;;1036242;28;20019;-73
2023/01/21 00:55:21;;;;;;;256.95;115.53;;;;;;;;;;1033669;28;20055;-73
2023/01/21 00:55:52;;;;;;;270.15;115.15;;;;;;;;;;1036931;28;20078;-73
2023/01/21 00:56:22;;;;;;;250.30;114.32;;;;;;;;;;1032670;28;20033;-73
2023/01/21 00:56:53;;;;;;;253.50;108.95;;;;;;;;;;1033549;28;20479;-73
2023/01/21 00:57:23;;;;;;;253.80;113.97;;;;;;;;;;1034066;28;20055;-73
2023/01/21 00:57:55;;;;;;;245.90;107.50;;;;;;;;;;1033463;28;20482;-73
2023/01/21 00:58:25;;;;;;;273.65;109.97;;;;;;;;;;1033518;28;20024;-73
2023/01/21 00:58:56;;;;;;;238.52;106.00;;;;;;;;;;1034532;28;20044;-73
2023/01/21 00:59:27;;;;;;;238.52;105.97;;;;;;;;;;1032905;28;20019;-73
2023/01/21 00:59:57;;;;;;;239.15;103.15;;;;;;;;;;1034591;28;20025;-73
2023/01/21 01:00:28;;;;;;;246.43;106.43;;;;;;;;;;1035348;28;20059;-73
2023/01/21 01:01:07;;;;;;;238.52;104.15;;;;;;;;;;1033809;28;20125;-73
2023/01/21 01:01:38;;;;;;;196.82;91.63;;;;;;;;;;1034275;28;20489;-73
2023/01/21 01:02:08;;;;;;;210.80;95.75;;;;;;;;;;1033381;28;20033;-73
2023/01/21 01:02:39;;;;;;;244.40;106.82;;;;;;;;;;1033458;28;20029;-73
2023/01/21 01:03:10;;;;;;;250.02;105.72;;;;;;;;;;1033364;28;20020;-73
2023/01/21 01:03:41;;;;;;;242.05;102.68;;;;;;;;;;1034200;28;20029;-73
2023/01/21 01:04:11;;;;;;;224.57;105.95;;;;;;;;;;1033836;28;20517;-73
2023/01/21 01:04:42;;;;;;;242.93;111.80;;;;;;;;;;1034305;28;20020;-73
2023/01/21 01:05:13;;;;;;;227.70;105.50;;;;;;;;;;1033438;28;20023;-73
2023/01/21 01:05:44;;;;;;;255.75;109.47;;;;;;;;;;1033879;28;20069;-73
2023/01/21 01:06:15;;;;;;;241.43;111.55;;;;;;;;;;1034799;28;20069;-73
2023/01/21 01:06:46;;;;;;;254.25;111.85;;;;;;;;;;1030907;28;20031;-73
2023/01/21 01:07:16;;;;;;;235.80;108.72;;;;;;;;;;1033738;28;20017;-73
2023/01/21 01:07:49;;;;;;;254.10;109.38;;;;;;;;;;1038443;28;20506;-73
2023/01/21 01:08:19;;;;;;;241.48;105.97;;;;;;;;;;1034115;28;20027;-73
2023/01/21 01:08:50;;;;;;;226.65;104.03;;;;;;;;;;1033884;28;20027;-73
2023/01/21 01:09:21;;;;;;;256.33;108.95;;;;;;;;;;1032982;28;20109;-73
2023/01/21 01:09:51;;;;;;;248.35;108.20;;;;;;;;;;1033845;28;20061;-73
2023/01/21 01:10:22;;;;;;;231.05;108.00;;;;;;;;;;1033803;28;20021;-73
2023/01/21 01:10:53;;;;;;;242.85;114.78;;;;;;;;;;1033191;28;20036;-73
2023/01/21 01:11:25;;;;;;;244.77;111.57;;;;;;;;;;1033803;28;20021;-73
2023/01/21 01:11:56;;;;;;;250.60;103.22;;;;;;;;;;1033904;28;20031;-73
2023/01/21 01:12:27;;;;;;;250.73;111.53;;;;;;;;;;1035323;28;20074;-73
2023/01/21 01:12:59;;;;;;;249.43;108.97;;;;;;;;;;1033814;28;20056;-73
2023/01/21 01:13:30;;;;;;;258.60;112.25;;;;;;;;;;1029197;28;20402;-73
2023/01/21 01:14:01;;;;;;;239.32;102.70;;;;;;;;;;1034137;28;20028;-73
2023/01/21 01:14:31;;;;;;;214.30;99.60;;;;;;;;;;1033385;28;20032;-73
2023/01/21 01:15:02;;;;;;;203.20;89.68;;;;;;;;;;1032910;28;20390;-73
2023/01/21 01:15:32;;;;;;;203.68;98.30;;;;;;;;;;1033992;28;20451;-73
2023/01/21 01:16:03;;;;;;;223.98;100.20;;;;;;;;;;1033424;28;20031;-73
2023/01/21 01:16:34;;;;;;;213.55;102.00;;;;;;;;;;1030243;28;20027;-73
2023/01/21 01:17:04;;;;;;;239.48;104.85;;;;;;;;;;1031949;28;20028;-73
2023/01/21 01:17:35;;;;;;;242.77;106.18;;;;;;;;;;1035160;28;20028;-73
2023/01/21 01:18:05;;;;;;;238.40;109.72;;;;;;;;;;1031502;28;20052;-73
2023/01/21 01:18:36;;;;;;;235.30;106.53;;;;;;;;;;1030139;28;20026;-73
2023/01/21 01:19:08;;;;;;;224.00;110.03;;;;;;;;;;1030043;28;20029;-73
2023/01/21 01:19:38;;;;;;;238.82;103.00;;;;;;;;;;1026645;28;20077;-73
2023/01/21 01:20:09;;;;;;;220.07;100.85;;;;;;;;;;1030146;28;20494;-73
2023/01/21 01:20:43;;;;;;;234.93;102.22;;;;;;;;;;1035881;28;20062;-73
2023/01/21 01:21:15;;;;;;;215.05;95.55;;;;;;;;;;1034084;28;20027;-73
2023/01/21 01:21:45;;;;;;;223.40;99.18;;;;;;;;;;1034047;28;20023;-73
2023/01/21 01:22:16;;;;;;;221.63;101.30;;;;;;;;;;1028820;28;20475;-73
2023/01/21 01:22:46;;;;;;;217.88;97.40;;;;;;;;;;1033478;28;20056;-73
2023/01/21 01:23:17;;;;;;;226.13;99.82;;;;;;;;;;1034097;28;20070;-72
2023/01/21 01:23:48;;;;;;;222.88;95.78;;;;;;;;;;1033287;28;20031;-72
2023/01/21 01:24:18;;;;;;;234.63;101.10;;;;;;;;;;1032118;28;20024;-73
2023/01/21 01:24:49;;;;;;;228.95;96.75;;;;;;;;;;1031362;28;21902;-73
2023/01/21 01:25:19;;;;;;;222.98;97.05;;;;;;;;;;1025169;28;20019;-73
2023/01/21 01:26:00;;;;;;;232.20;100.82;;;;;;;;;;1029137;28;20469;-73
2023/01/21 01:26:31;;;;;;;222.60;96.03;;;;;;;;;;1033094;28;20038;-73
2023/01/21 01:27:01;;;;;;;248.15;97.72;;;;;;;;;;1034056;28;20031;-73
2023/01/21 01:27:32;;;;;;;200.02;91.35;;;;;;;;;;1034889;28;20489;-73
2023/01/21 01:28:03;;;;;;;201.68;94.75;;;;;;;;;;1033139;28;20023;-73
2023/01/21 01:28:33;;;;;;;207.73;90.10;;;;;;;;;;1030934;28;20170;-73
2023/01/21 01:29:04;;;;;;;217.57;91.32;;;;;;;;;;1027375;28;20079;-73
2023/01/21 01:29:34;;;;;;;216.55;94.72;;;;;;;;;;1025849;28;20025;-73
2023/01/21 01:30:05;;;;;;;215.73;93.25;;;;;;;;;;1025344;28;20022;-73
2023/01/21 01:30:36;;;;;;;201.40;91.80;;;;;;;;;;1036294;28;20402;-73
2023/01/21 01:31:07;;;;;;;202.38;91.30;;;;;;;;;;1036713;28;20023;-73
2023/01/21 01:31:38;;;;;;;218.07;91.55;;;;;;;;;;1030335;28;20029;-73
2023/01/21 01:32:09;;;;;;;209.55;91.38;;;;;;;;;;1030588;28;20023;-73
2023/01/21 01:32:39;;;;;;;205.18;86.80;;;;;;;;;;1030594;28;20031;-73
2023/01/21 01:33:10;;;;;;;235.38;97.45;;;;;;;;;;1029766;28;20019;-73
2023/01/21 01:33:40;;;;;;;208.35;94.60;;;;;;;;;;1030671;28;20118;-73
2023/01/21 01:34:11;;;;;;;235.18;102.28;;;;;;;;;;1030479;28;20035;-73
2023/01/21 01:34:41;;;;;;;196.63;91.70;;;;;;;;;;1029825;28;20466;-73
2023/01/21 01:35:12;;;;;;;205.38;94.47;;;;;;;;;;1032260;28;20025;-73
2023/01/21 01:35:45;;;;;;;213.55;95.47;;;;;;;;;;1033724;28;20121;-73
2023/01/21 01:36:18;;;;;;;208.02;92.45;;;;;;;;;;1042070;28;20021;-73
2023/01/21 01:36:49;;;;;;;200.75;93.70;;;;;;;;;;1042972;28;20032;-73
2023/01/21 01:37:19;;;;;;;214.80;92.30;;;;;;;;;;1031741;28;20441;-73
2023/01/21 01:37:50;;;;;;;203.35;96.88;;;;;;;;;;1036251;28;20055;-73
2023/01/21 01:38:21;;;;;;;225.05;90.82;;;;;;;;;;1036101;28;20038;-73
2023/01/21 01:38:52;;;;;;;220.63;95.80;;;;;;;;;;1030392;28;20452;-73
2023/01/21 01:39:22;;;;;;;206.88;90.63;;;;;;;;;;1033233;28;20027;-73
2023/01/21 01:39:53;;;;;;;200.65;96.28;;;;;;;;;;1037649;28;20019;-73
2023/01/21 01:40:23;;;;;;;213.55;92.93;;;;;;;;;;1037548;28;20041;-73
2023/01/21 01:40:54;;;;;;;210.73;97.65;;;;;;;;;;1036448;28;20063;-73
2023/01/21 01:41:26;;;;;;;214.15;95.72;;;;;;;;;;1031014;28;20035;-73
2023/01/21 01:41:57;;;;;;;188.45;91.53;;;;;;;;;;1030504;28;20556;-73
2023/01/21 01:42:27;;;;;;;203.23;91.95;;;;;;;;;;1027265;28;20039;-73
2023/01/21 01:42:58;;;;;;;213.25;97.25;;;;;;;;;;1031609;28;20029;-73
2023/01/21 01:43:48;;;;;;;219.60;96.40;;;;;;;;;;1032063;28;20025;-73
2023/01/21 01:44:37;;;;;;;199.82;92.43;;;;;;;;;;1037890;28;20024;-73
2023/01/21 01:45:13;;;;;;;215.07;91.63;;;;;;;;;;1039194;28;20070;-73
2023/01/21 01:45:46;;;;;;;204.30;92.60;;;;;;;;;;1036358;28;20025;-73
2023/01/21 01:46:16;;;;;;;218.32;95.07;;;;;;;;;;1040428;28;20488;-73
2023/01/21 01:46:47;;;;;;;198.27;93.30;;;;;;;;;;1040423;28;20024;-73
2023/01/21 01:47:17;;;;;;;224.05;93.07;;;;;;;;;;1040276;28;20024;-73
2023/01/21 01:47:56;;;;;;;199.27;90.13;;;;;;;;;;1034049;28;20422;-73
2023/01/21 01:48:30;;;;;;;200.95;92.03;;;;;;;;;;1029949;28;20102;-73
2023/01/21 01:49:05;;;;;;;204.68;91.68;;;;;;;;;;1032311;28;20024;-72
2023/01/21 01:49:36;;;;;;;199.50;90.47;;;;;;;;;;1034910;28;20471;-72
2023/01/21 01:50:09;;;;;;;185.32;87.75;;;;;;;;;;1036616;28;20034;-72
2023/01/21 01:50:40;;;;;;;221.20;94.80;;;;;;;;;;1036216;28;20021;-72
2023/01/21 01:51:12;;;;;;;213.15;91.85;;;;;;;;;;1033641;28;20033;-72
2023/01/21 01:51:45;;;;;;;213.57;92.88;;;;;;;;;;1030546;28;20031;-72
2023/01/21 01:52:16;;;;;;;198.75;90.13;;;;;;;;;;1023925;28;20027;-72
2023/01/21 01:52:47;;;;;;;197.07;93.28;;;;;;;;;;1028949;28;20110;-73
2023/01/21 01:53:18;;;;;;;211.73;95.32;;;;;;;;;;1029194;28;20035;-73
2023/01/21 01:53:50;;;;;;;214.35;95.68;;;;;;;;;;1042476;28;20021;-73
2023/01/21 01:54:23;;;;;;;231.35;102.35;;;;;;;;;;1039679;28;20497;-73
2023/01/21 01:54:56;;;;;;;235.15;101.85;;;;;;;;;;1034742;28;20031;-73
2023/01/21 01:55:30;;;;;;;235.32;106.65;;;;;;;;;;1036399;28;20031;-73
2023/01/21 01:56:01;;;;;;;228.15;103.43;;;;;;;;;;1035481;28;20056;-73
2023/01/21 01:56:33;;;;;;;233.38;101.32;;;;;;;;;;1036256;28;20043;-73
2023/01/21 01:57:05;;;;;;;261.40;109.15;;;;;;;;;;1029138;28;20015;-73
2023/01/21 01:57:38;;;;;;;268.83;114.45;;;;;;;;;;1036353;28;20051;-73
2023/01/21 01:58:11;;;;;;;274.98;114.35;;;;;;;;;;1029880;28;20027;-73
2023/01/21 01:58:42;;;;;;;284.55;118.18;;;;;;;;;;1032680;28;20028;-73
2023/01/21 01:59:12;;;;;;;230.20;101.13;;;;;;;;;;1036288;28;20028;-73
2023/01/21 01:59:44;;;;;;;227.30;107.13;;;;;;;;;;1034702;28;20032;-73
2023/01/21 02:00:14;;;;;;;233.25;100.15;;;;;;;;;;1030579;28;20031;-73
2023/01/21 02:00:45;;;;;;;227.32;100.28;;;;;;;;;;1030370;28;20114;-73
2023/01/21 02:01:15;;;;;;;233.70;100.60;;;;;;;;;;1030580;28;20430;-73
2023/01/21 02:01:46;;;;;;;221.18;102.53;;;;;;;;;;1030623;28;20062;-73
2023/01/21 02:02:18;;;;;;;208.30;93.80;;;;;;;;;;1031269;28;20569;-73
2023/01/21 02:03:43;;;;;;;234.90;99.90;;;;;;;;;;1030268;28;20024;-73
2023/01/21 02:04:17;;;;;;;237.10;103.32;;;;;;;;;;1036951;28;20028;-73
2023/01/21 02:04:50;;;;;;;237.52;102.47;;;;;;;;;;1038406;28;20016;-73
2023/01/21 02:05:20;;;;;;;222.27;99.45;;;;;;;;;;1031287;28;20432;-73
2023/01/21 02:05:52;;;;;;;223.13;98.88;;;;;;;;;;1036501;28;20074;-73
2023/01/21 02:06:22;;;;;;;248.13;107.90;;;;;;;;;;1031707;28;20393;-73
2023/01/21 02:06:53;;;;;;;270.20;118.28;;;;;;;;;;1032475;28;20059;-73
2023/01/21 02:07:25;;;;;;;238.30;109.40;;;;;;;;;;1029960;28;20488;-74
2023/01/21 02:07:55;;;;;;;236.25;103.85;;;;;;;;;;1031303;28;20019;-73
2023/01/21 02:08:27;;;;;;;235.82;108.93;;;;;;;;;;1032136;28;20540;-73
2023/01/21 02:08:57;;;;;;;235.88;109.78;;;;;;;;;;1036867;28;20103;-73
2023/01/21 02:09:28;;;;;;;248.38;109.32;;;;;;;;;;1035677;28;20021;-73
2023/01/21 02:09:59;;;;;;;265.20;118.32;;;;;;;;;;1035995;28;20020;-73
2023/01/21 02:10:30;;;;;;;281.17;120.78;;;;;;;;;;1033720;28;20496;-73
2023/01/21 02:11:01;;;;;;;294.10;118.97;;;;;;;;;;1034663;28;20034;-73
2023/01/21 02:11:32;;;;;;;279.40;118.30;;;;;;;;;;1035846;28;20044;-73
2023/01/21 02:12:03;;;;;;;271.00;118.90;;;;;;;;;;1036627;28;20047;-73
2023/01/21 02:12:35;;;;;;;263.73;121.68;;;;;;;;;;1031103;28;20029;-73
2023/01/21 02:13:06;;;;;;;281.73;120.10;;;;;;;;;;1036595;28;20019;-73
2023/01/21 02:13:36;;;;;;;265.27;121.78;;;;;;;;;;1033267;28;20024;-73
2023/01/21 02:14:07;;;;;;;295.00;125.35;;;;;;;;;;1030285;28;20025;-73
2023/01/21 02:14:41;;;;;;;289.67;128.13;;;;;;;;;;1030285;28;20038;-73
2023/01/21 02:15:12;;;;;;;282.58;125.72;;;;;;;;;;1029792;28;20027;-73
2023/01/21 02:15:52;;;;;;;294.83;127.25;;;;;;;;;;1031178;28;20066;-73
2023/01/21 02:16:29;;;;;;;270.08;123.97;;;;;;;;;;1031088;28;20027;-73
2023/01/21 02:16:59;;;;;;;291.85;122.60;;;;;;;;;;1035920;28;20452;-73
2023/01/21 02:17:43;;;;;;;267.60;114.70;;;;;;;;;;1032185;28;20025;-73
2023/01/21 02:18:32;;;;;;;259.00;116.72;;;;;;;;;;1030615;28;20123;-73
2023/01/21 02:19:21;;;;;;;280.05;118.95;;;;;;;;;;1038744;28;20016;-73
2023/01/21 02:19:57;;;;;;;265.08;109.82;;;;;;;;;;1032164;28;20025;-73
2023/01/21 02:20:46;;;;;;;262.35;116.90;;;;;;;;;;1036828;28;20024;-73
2023/01/21 02:21:19;;;;;;;264.20;117.15;;;;;;;;;;1036283;28;20056;-73
2023/01/21 02:21:59;;;;;;;264.48;109.53;;;;;;;;;;1036357;28;20073;-73
2023/01/21 02:22:55;;;;;;;258.90;112.82;;;;;;;;;;1036992;28;20029;-73
2023/01/21 02:23:39;;;;;;;249.45;110.00;;;;;;;;;;1035080;28;20040;-73
2023/01/21 02:24:12;;;;;;;246.40;104.22;;;;;;;;;;1032197;28;20050;-73
2023/01/21 02:25:01;;;;;;;275.90;117.68;;;;;;;;;;1036190;28;20017;-73
2023/01/21 02:25:41;;;;;;;240.07;111.93;;;;;;;;;;1031313;28;20050;-73
2023/01/21 02:26:23;;;;;;;253.45;110.20;;;;;;;;;;1030358;28;20067;-73
2023/01/21 02:27:09;;;;;;;262.13;112.18;;;;;;;;;;1028644;28;20139;-73
2023/01/21 02:28:04;;;;;;;250.77;111.32;;;;;;;;;;1031465;28;20015;-73
2023/01/21 02:28:54;;;;;;;273.98;116.18;;;;;;;;;;1031302;28;20021;-73
2023/01/21 02:29:33;;;;;;;248.90;109.13;;;;;;;;;;1030779;28;20112;-73
2023/01/21 02:30:19;;;;;;;247.88;106.15;;;;;;;;;;1030857;28;20190;-74
2023/01/21 02:31:06;;;;;;;254.13;112.50;;;;;;;;;;1030729;28;20090;-73
2023/01/21 02:31:48;;;;;;;250.50;110.13;;;;;;;;;;1036184;28;20030;-73
2023/01/21 02:32:25;;;;;;;270.27;108.07;;;;;;;;;;1027659;28;20029;-73
2023/01/21 02:32:58;;;;;;;259.00;116.65;;;;;;;;;;1036131;28;20035;-73
2023/01/21 02:33:29;;;;;;;254.00;115.15;;;;;;;;;;1035659;28;20086;-73
2023/01/21 02:34:03;;;;;;;263.00;120.28;;;;;;;;;;1035312;28;20055;-73
2023/01/21 02:34:38;;;;;;;258.70;112.18;;;;;;;;;;1025255;28;20023;-73
2023/01/21 02:35:27;;;;;;;272.88;117.38;;;;;;;;;;1029979;28;20033;-73
2023/01/21 02:36:16;;;;;;;246.30;113.15;;;;;;;;;;1033807;28;20583;-73
2023/01/21 02:36:49;;;;;;;250.48;111.95;;;;;;;;;;1031394;28;20015;-73
2023/01/21 02:37:25;;;;;;;252.65;116.25;;;;;;;;;;1027785;28;20034;-73
2023/01/21 02:37:56;;;;;;;239.50;108.13;;;;;;;;;;1032842;28;20635;-73
2023/01/21 02:38:40;;;;;;;253.15;115.97;;;;;;;;;;1035030;28;20023;-73
2023/01/21 02:39:29;;;;;;;234.25;107.60;;;;;;;;;;1031769;28;20035;-73
2023/01/21 02:39:59;;;;;;;231.88;105.10;;;;;;;;;;1031724;28;20024;-73
2023/01/21 02:40:30;;;;;;;228.15;104.40;;;;;;;;;;1033033;28;20028;-73
2023/01/21 02:41:18;;;;;;;228.70;105.95;;;;;;;;;;1029486;28;20544;-73
2023/01/21 02:42:15;;;;;;;228.60;107.03;;;;;;;;;;1036218;28;20021;-73
2023/01/21 02:42:49;;;;;;;218.65;97.85;;;;;;;;;;1030308;28;20031;-72
2023/01/21 02:43:40;;;;;;;258.17;105.18;;;;;;;;;;1024392;28;20124;-73
2023/01/21 02:44:29;;;;;;;257.00;113.78;;;;;;;;;;1030538;28;20039;-73
2023/01/21 02:45:02;;;;;;;236.48;103.07;;;;;;;;;;1032123;28;20045;-73
2023/01/21 02:45:38;;;;;;;226.32;99.45;;;;;;;;;;1033389;28;20055;-73
2023/01/21 02:46:13;;;;;;;242.15;107.60;;;;;;;;;;1027320;28;20039;-74
2023/01/21 02:46:45;;;;;;;248.70;110.45;;;;;;;;;;1027669;28;20015;-73
2023/01/21 02:47:31;;;;;;;244.13;117.25;;;;;;;;;;1031655;28;20031;-73
2023/01/21 02:48:06;;;;;;;278.50;121.82;;;;;;;;;;1031914;28;20030;-73
2023/01/21 02:48:40;;;;;;;275.77;120.20;;;;;;;;;;1029350;28;20025;-73
2023/01/21 02:49:10;;;;;;;311.13;130.98;;;;;;;;;;1032980;28;20023;-73
2023/01/21 02:49:49;;;;;;;271.02;124.05;;;;;;;;;;1033143;28;20025;-73
2023/01/21 02:50:24;;;;;;;274.67;131.40;;;;;;;;;;1032058;28;20386;-73
2023/01/21 02:50:55;;;;;;;282.40;132.80;;;;;;;;;;1033372;28;20051;-73
2023/01/21 02:51:26;;;;;;;305.85;135.90;;;;;;;;;;1030457;28;20151;-73
2023/01/21 02:51:56;;;;;;;294.20;134.10;;;;;;;;;;1031712;28;20038;-73
2023/01/21 02:52:27;;;;;;;289.00;137.32;;;;;;;;;;1031143;28;20057;-73
2023/01/21 02:52:59;;;;;;;290.35;133.23;;;;;;;;;;1033008;28;20023;-73
2023/01/21 02:53:31;;;;;;;269.52;130.55;;;;;;;;;;1032449;28;20023;-73
2023/01/21 02:54:19;;;;;;;265.25;124.30;;;;;;;;;;1028257;28;20030;-73
2023/01/21 02:54:50;;;;;;;254.13;123.88;;;;;;;;;;1032869;28;20013;-73
2023/01/21 02:55:22;;;;;;;267.75;124.55;;;;;;;;;;1028237;28;20024;-73
2023/01/21 02:55:53;;;;;;;257.33;126.25;;;;;;;;;;1029182;28;20035;-73
2023/01/21 02:56:25;;;;;;;285.52;129.93;;;;;;;;;;1025930;28;20027;-73
2023/01/21 02:56:56;;;;;;;312.55;141.82;;;;;;;;;;1035686;28;20031;-73
2023/01/21 02:57:35;;;;;;;305.50;147.25;;;;;;;;;;1033598;28;20155;-73
2023/01/21 02:58:09;;;;;;;308.30;139.27;;;;;;;;;;1031745;28;20455;-73
2023/01/21 02:58:44;;;;;;;303.75;135.35;;;;;;;;;;1035799;28;20019;-74
2023/01/21 02:59:14;;;;;;;290.42;132.05;;;;;;;;;;1032585;28;20023;-73
2023/01/21 02:59:46;;;;;;;298.83;130.60;;;;;;;;;;1032721;28;20015;-74
2023/01/21 03:00:19;;;;;;;304.00;138.52;;;;;;;;;;1033703;28;20037;-73
2023/01/21 03:00:56;;;;;;;304.35;137.05;;;;;;;;;;1034573;28;20027;-73
2023/01/21 03:01:36;;;;;;;286.92;135.65;;;;;;;;;;1030395;28;20035;-73
2023/01/21 03:02:06;;;;;;;269.80;123.50;;;;;;;;;;1031737;28;20031;-73
2023/01/21 03:02:36;;;;;;;307.48;135.07;;;;;;;;;;1032415;28;20019;-73
2023/01/21 03:03:25;;;;;;;256.90;126.00;;;;;;;;;;1033474;28;20023;-73
2023/01/21 03:04:05;;;;;;;268.77;123.00;;;;;;;;;;1022923;28;20526;-73
2023/01/21 03:04:42;;;;;;;251.93;118.43;;;;;;;;;;1027635;28;20045;-73
2023/01/21 03:05:13;;;;;;;271.02;123.93;;;;;;;;;;1031924;28;20119;-73
2023/01/21 03:06:02;;;;;;;275.90;126.35;;;;;;;;;;1032664;28;20196;-73
2023/01/21 03:06:48;;;;;;;250.70;118.18;;;;;;;;;;1030173;28;20030;-73
2023/01/21 03:07:28;;;;;;;224.63;110.15;;;;;;;;;;1031168;28;20931;-73
2023/01/21 03:08:15;;;;;;;216.98;111.90;;;;;;;;;;1033080;28;20023;-73
2023/01/21 03:08:54;;;;;;;243.43;112.15;;;;;;;;;;1032677;28;20031;-73